sensor_id;sensor_type;location;lat;lon;timestamp;P1;durP1;ratioP1;P2;durP2;ratioP2
43325;SDS011;28920;59.862;30.636;2022-08-11T00:01:09;8.75;;;3.87;;
43325;SDS011;28920;59.862;30.636;2022-08-11T00:03:44;7.93;;;3.85;;
43325;SDS011;28920;59.862;30.636;2022-08-11T00:06:15;9.43;;;3.95;;
43325;SDS011;28920;59.862;30.636;2022-08-11T00:08:51;9.95;;;3.70;;
43325;SDS011;28920;59.862;30.636;2022-08-11T00:11:21;9.82;;;5.20;;
43325;SDS011;28920;59.862;30.636;2022-08-11T00:13:58;7.37;;;4.15;;
43325;SDS011;28920;59.862;30.636;2022-08-11T00:16:27;7.22;;;4.05;;
43325;SDS011;28920;59.862;30.636;2022-08-11T00:18:56;8.77;;;4.53;;
43325;SDS011;28920;59.862;30.636;2022-08-11T00:21:28;10.75;;;4.85;;
43325;SDS011;28920;59.862;30.636;2022-08-11T00:23:58;11.63;;;5.40;;
43325;SDS011;28920;59.862;30.636;2022-08-11T00:26:28;13.55;;;4.68;;
43325;SDS011;28920;59.862;30.636;2022-08-11T00:28:57;6.45;;;4.12;;
43325;SDS011;28920;59.862;30.636;2022-08-11T00:31:35;9.27;;;4.75;;
43325;SDS011;28920;59.862;30.636;2022-08-11T00:34:05;6.78;;;4.60;;
43325;SDS011;28920;59.862;30.636;2022-08-11T00:36:42;10.15;;;4.97;;
43325;SDS011;28920;59.862;30.636;2022-08-11T00:39:13;10.35;;;4.57;;
43325;SDS011;28920;59.862;30.636;2022-08-11T00:41:46;10.77;;;4.85;;
43325;SDS011;28920;59.862;30.636;2022-08-11T00:44:39;6.15;;;4.20;;
43325;SDS011;28920;59.862;30.636;2022-08-11T00:47:20;8.10;;;4.30;;
43325;SDS011;28920;59.862;30.636;2022-08-11T00:50:03;16.98;;;5.43;;
43325;SDS011;28920;59.862;30.636;2022-08-11T00:53:04;9.05;;;5.25;;
43325;SDS011;28920;59.862;30.636;2022-08-11T00:56:07;7.25;;;4.50;;
43325;SDS011;28920;59.862;30.636;2022-08-11T01:01:56;11.15;;;5.47;;
43325;SDS011;28920;59.862;30.636;2022-08-11T01:04:45;10.70;;;4.85;;
43325;SDS011;28920;59.862;30.636;2022-08-11T01:07:57;8.45;;;4.65;;
43325;SDS011;28920;59.862;30.636;2022-08-11T01:11:04;12.20;;;5.40;;
43325;SDS011;28920;59.862;30.636;2022-08-11T01:17:01;8.00;;;5.07;;
43325;SDS011;28920;59.862;30.636;2022-08-11T01:20:02;12.23;;;6.22;;
43325;SDS011;28920;59.862;30.636;2022-08-11T01:23:02;9.68;;;6.50;;
43325;SDS011;28920;59.862;30.636;2022-08-11T01:29:51;10.55;;;5.70;;
43325;SDS011;28920;59.862;30.636;2022-08-11T01:32:46;10.73;;;5.82;;
43325;SDS011;28920;59.862;30.636;2022-08-11T01:35:41;15.70;;;7.00;;
43325;SDS011;28920;59.862;30.636;2022-08-11T01:38:49;13.95;;;6.80;;
43325;SDS011;28920;59.862;30.636;2022-08-11T01:41:58;11.23;;;6.60;;
43325;SDS011;28920;59.862;30.636;2022-08-11T01:45:15;13.48;;;6.45;;
43325;SDS011;28920;59.862;30.636;2022-08-11T01:47:57;14.55;;;6.95;;
43325;SDS011;28920;59.862;30.636;2022-08-11T01:53:28;13.38;;;6.93;;
43325;SDS011;28920;59.862;30.636;2022-08-11T01:56:07;11.30;;;6.75;;
43325;SDS011;28920;59.862;30.636;2022-08-11T01:58:43;15.20;;;6.97;;
43325;SDS011;28920;59.862;30.636;2022-08-11T02:01:31;15.13;;;6.90;;
43325;SDS011;28920;59.862;30.636;2022-08-11T02:04:12;15.32;;;7.70;;
43325;SDS011;28920;59.862;30.636;2022-08-11T02:06:54;15.38;;;8.20;;
43325;SDS011;28920;59.862;30.636;2022-08-11T02:09:32;16.98;;;8.15;;
43325;SDS011;28920;59.862;30.636;2022-08-11T02:12:13;9.35;;;7.45;;
43325;SDS011;28920;59.862;30.636;2022-08-11T02:14:51;15.57;;;8.18;;
43325;SDS011;28920;59.862;30.636;2022-08-11T02:17:35;17.77;;;9.30;;
43325;SDS011;28920;59.862;30.636;2022-08-11T02:20:14;11.48;;;7.80;;
43325;SDS011;28920;59.862;30.636;2022-08-11T02:23:08;11.65;;;7.82;;
43325;SDS011;28920;59.862;30.636;2022-08-11T02:26:13;14.25;;;7.82;;
43325;SDS011;28920;59.862;30.636;2022-08-11T02:28:59;13.85;;;8.60;;
43325;SDS011;28920;59.862;30.636;2022-08-11T02:31:39;12.70;;;7.45;;
43325;SDS011;28920;59.862;30.636;2022-08-11T02:34:31;13.55;;;7.85;;
43325;SDS011;28920;59.862;30.636;2022-08-11T02:37:09;12.07;;;8.13;;
43325;SDS011;28920;59.862;30.636;2022-08-11T02:39:51;19.92;;;10.00;;
43325;SDS011;28920;59.862;30.636;2022-08-11T02:42:29;24.17;;;11.82;;
43325;SDS011;28920;59.862;30.636;2022-08-11T02:45:07;18.85;;;11.70;;
43325;SDS011;28920;59.862;30.636;2022-08-11T02:47:47;19.40;;;10.15;;
43325;SDS011;28920;59.862;30.636;2022-08-11T02:50:40;16.40;;;9.65;;
43325;SDS011;28920;59.862;30.636;2022-08-11T02:53:24;15.35;;;10.00;;
43325;SDS011;28920;59.862;30.636;2022-08-11T02:56:02;18.48;;;11.73;;
43325;SDS011;28920;59.862;30.636;2022-08-11T02:58:42;17.30;;;10.65;;
43325;SDS011;28920;59.862;30.636;2022-08-11T03:01:38;18.60;;;10.52;;
43325;SDS011;28920;59.862;30.636;2022-08-11T03:04:13;18.42;;;10.85;;
43325;SDS011;28920;59.862;30.636;2022-08-11T03:06:48;21.73;;;12.18;;
43325;SDS011;28920;59.862;30.636;2022-08-11T03:09:23;19.95;;;12.10;;
43325;SDS011;28920;59.862;30.636;2022-08-11T03:11:59;18.75;;;11.98;;
43325;SDS011;28920;59.862;30.636;2022-08-11T03:14:51;21.60;;;12.52;;
43325;SDS011;28920;59.862;30.636;2022-08-11T03:17:47;18.08;;;12.05;;
43325;SDS011;28920;59.862;30.636;2022-08-11T03:20:31;21.25;;;13.00;;
43325;SDS011;28920;59.862;30.636;2022-08-11T03:23:06;19.85;;;11.30;;
43325;SDS011;28920;59.862;30.636;2022-08-11T03:25:44;20.10;;;12.65;;
43325;SDS011;28920;59.862;30.636;2022-08-11T03:28:31;16.73;;;11.48;;
43325;SDS011;28920;59.862;30.636;2022-08-11T03:31:09;19.98;;;12.57;;
43325;SDS011;28920;59.862;30.636;2022-08-11T03:33:51;17.02;;;11.50;;
43325;SDS011;28920;59.862;30.636;2022-08-11T03:40:03;19.58;;;12.50;;
43325;SDS011;28920;59.862;30.636;2022-08-11T03:43:06;20.25;;;12.45;;
43325;SDS011;28920;59.862;30.636;2022-08-11T03:45:49;19.83;;;11.90;;
43325;SDS011;28920;59.862;30.636;2022-08-11T03:48:24;18.40;;;11.18;;
43325;SDS011;28920;59.862;30.636;2022-08-11T03:51:06;19.58;;;12.98;;
43325;SDS011;28920;59.862;30.636;2022-08-11T03:53:54;20.45;;;12.48;;
43325;SDS011;28920;59.862;30.636;2022-08-11T03:56:51;18.30;;;12.32;;
43325;SDS011;28920;59.862;30.636;2022-08-11T03:59:57;19.73;;;11.80;;
43325;SDS011;28920;59.862;30.636;2022-08-11T04:02:47;22.60;;;12.63;;
43325;SDS011;28920;59.862;30.636;2022-08-11T04:12:31;17.92;;;10.30;;
43325;SDS011;28920;59.862;30.636;2022-08-11T04:15:13;16.60;;;10.75;;
43325;SDS011;28920;59.862;30.636;2022-08-11T04:18:29;18.15;;;9.32;;
43325;SDS011;28920;59.862;30.636;2022-08-11T04:21:35;20.35;;;8.40;;
43325;SDS011;28920;59.862;30.636;2022-08-11T04:24:41;14.95;;;8.00;;
43325;SDS011;28920;59.862;30.636;2022-08-11T04:30:22;10.07;;;7.18;;
43325;SDS011;28920;59.862;30.636;2022-08-11T04:33:16;11.40;;;6.80;;
43325;SDS011;28920;59.862;30.636;2022-08-11T04:36:09;9.88;;;6.05;;
43325;SDS011;28920;59.862;30.636;2022-08-11T04:39:15;8.88;;;5.75;;
43325;SDS011;28920;59.862;30.636;2022-08-11T04:42:03;8.38;;;4.45;;
43325;SDS011;28920;59.862;30.636;2022-08-11T04:48:08;10.18;;;5.43;;
43325;SDS011;28920;59.862;30.636;2022-08-11T04:51:20;9.40;;;5.00;;
43325;SDS011;28920;59.862;30.636;2022-08-11T04:54:19;6.93;;;4.30;;
43325;SDS011;28920;59.862;30.636;2022-08-11T04:57:13;7.25;;;4.85;;
43325;SDS011;28920;59.862;30.636;2022-08-11T05:00:04;7.65;;;3.92;;
43325;SDS011;28920;59.862;30.636;2022-08-11T05:09:43;9.27;;;3.37;;
43325;SDS011;28920;59.862;30.636;2022-08-11T05:12:33;7.00;;;3.30;;
43325;SDS011;28920;59.862;30.636;2022-08-11T05:15:09;4.40;;;2.80;;
43325;SDS011;28920;59.862;30.636;2022-08-11T05:17:59;5.87;;;3.03;;
43325;SDS011;28920;59.862;30.636;2022-08-11T05:20:51;6.40;;;3.50;;
43325;SDS011;28920;59.862;30.636;2022-08-11T05:23:41;8.57;;;3.30;;
43325;SDS011;28920;59.862;30.636;2022-08-11T05:26:36;7.25;;;3.00;;
43325;SDS011;28920;59.862;30.636;2022-08-11T05:29:41;5.85;;;2.83;;
43325;SDS011;28920;59.862;30.636;2022-08-11T05:32:31;4.53;;;2.07;;
43325;SDS011;28920;59.862;30.636;2022-08-11T05:35:23;4.85;;;2.50;;
43325;SDS011;28920;59.862;30.636;2022-08-11T05:37:55;5.12;;;2.40;;
43325;SDS011;28920;59.862;30.636;2022-08-11T05:40:49;5.45;;;2.42;;
43325;SDS011;28920;59.862;30.636;2022-08-11T05:43:38;5.45;;;2.40;;
43325;SDS011;28920;59.862;30.636;2022-08-11T05:46:27;3.17;;;1.95;;
43325;SDS011;28920;59.862;30.636;2022-08-11T05:49:12;4.00;;;2.00;;
43325;SDS011;28920;59.862;30.636;2022-08-11T05:51:59;3.75;;;1.90;;
43325;SDS011;28920;59.862;30.636;2022-08-11T05:54:47;5.97;;;2.12;;
43325;SDS011;28920;59.862;30.636;2022-08-11T05:57:37;3.45;;;1.80;;
43325;SDS011;28920;59.862;30.636;2022-08-11T06:00:06;4.30;;;1.95;;
43325;SDS011;28920;59.862;30.636;2022-08-11T06:02:39;6.65;;;2.10;;
43325;SDS011;28920;59.862;30.636;2022-08-11T06:05:08;2.65;;;1.70;;
43325;SDS011;28920;59.862;30.636;2022-08-11T06:07:38;4.75;;;1.70;;
43325;SDS011;28920;59.862;30.636;2022-08-11T06:10:06;8.30;;;2.28;;
43325;SDS011;28920;59.862;30.636;2022-08-11T06:12:37;5.40;;;2.03;;
43325;SDS011;28920;59.862;30.636;2022-08-11T06:15:07;3.30;;;1.60;;
43325;SDS011;28920;59.862;30.636;2022-08-11T06:17:42;6.65;;;1.85;;
43325;SDS011;28920;59.862;30.636;2022-08-11T06:20:12;2.47;;;1.60;;
43325;SDS011;28920;59.862;30.636;2022-08-11T06:22:42;3.72;;;1.85;;
43325;SDS011;28920;59.862;30.636;2022-08-11T06:25:12;5.70;;;1.52;;
43325;SDS011;28920;59.862;30.636;2022-08-11T06:27:43;4.22;;;1.73;;
43325;SDS011;28920;59.862;30.636;2022-08-11T06:30:14;2.15;;;1.40;;
43325;SDS011;28920;59.862;30.636;2022-08-11T06:32:44;7.93;;;1.77;;
43325;SDS011;28920;59.862;30.636;2022-08-11T06:35:17;8.05;;;1.70;;
43325;SDS011;28920;59.862;30.636;2022-08-11T06:38:00;4.35;;;1.73;;
43325;SDS011;28920;59.862;30.636;2022-08-11T06:40:34;5.82;;;2.00;;
43325;SDS011;28920;59.862;30.636;2022-08-11T06:43:14;3.40;;;1.87;;
43325;SDS011;28920;59.862;30.636;2022-08-11T06:45:47;8.07;;;1.73;;
43325;SDS011;28920;59.862;30.636;2022-08-11T06:48:22;9.73;;;1.83;;
43325;SDS011;28920;59.862;30.636;2022-08-11T06:50:52;5.68;;;2.35;;
43325;SDS011;28920;59.862;30.636;2022-08-11T06:53:41;6.75;;;2.05;;
43325;SDS011;28920;59.862;30.636;2022-08-11T06:56:11;5.95;;;1.95;;
43325;SDS011;28920;59.862;30.636;2022-08-11T06:59:00;4.85;;;1.83;;
43325;SDS011;28920;59.862;30.636;2022-08-11T07:01:48;5.00;;;2.08;;
43325;SDS011;28920;59.862;30.636;2022-08-11T07:04:28;8.77;;;2.35;;
43325;SDS011;28920;59.862;30.636;2022-08-11T07:07:09;4.55;;;2.00;;
43325;SDS011;28920;59.862;30.636;2022-08-11T07:10:23;4.45;;;1.75;;
43325;SDS011;28920;59.862;30.636;2022-08-11T07:13:17;3.95;;;1.95;;
43325;SDS011;28920;59.862;30.636;2022-08-11T07:16:08;8.40;;;2.28;;
43325;SDS011;28920;59.862;30.636;2022-08-11T07:18:37;5.07;;;2.10;;
43325;SDS011;28920;59.862;30.636;2022-08-11T07:21:26;8.60;;;2.20;;
43325;SDS011;28920;59.862;30.636;2022-08-11T07:24:16;4.90;;;2.30;;
43325;SDS011;28920;59.862;30.636;2022-08-11T07:27:06;2.92;;;1.58;;
43325;SDS011;28920;59.862;30.636;2022-08-11T07:29:56;4.07;;;1.85;;
43325;SDS011;28920;59.862;30.636;2022-08-11T07:32:27;5.37;;;1.75;;
43325;SDS011;28920;59.862;30.636;2022-08-11T07:34:58;2.67;;;1.90;;
43325;SDS011;28920;59.862;30.636;2022-08-11T07:37:33;7.12;;;1.73;;
43325;SDS011;28920;59.862;30.636;2022-08-11T07:40:03;5.82;;;1.77;;
43325;SDS011;28920;59.862;30.636;2022-08-11T07:42:32;4.32;;;1.30;;
43325;SDS011;28920;59.862;30.636;2022-08-11T07:45:03;6.22;;;1.70;;
43325;SDS011;28920;59.862;30.636;2022-08-11T07:47:52;2.90;;;1.30;;
43325;SDS011;28920;59.862;30.636;2022-08-11T07:50:39;3.72;;;1.70;;
43325;SDS011;28920;59.862;30.636;2022-08-11T07:53:26;4.50;;;1.30;;
43325;SDS011;28920;59.862;30.636;2022-08-11T07:55:57;1.97;;;1.30;;
43325;SDS011;28920;59.862;30.636;2022-08-11T07:58:27;3.30;;;1.20;;
43325;SDS011;28920;59.862;30.636;2022-08-11T08:01:17;3.03;;;1.55;;
43325;SDS011;28920;59.862;30.636;2022-08-11T08:04:06;2.42;;;1.40;;
43325;SDS011;28920;59.862;30.636;2022-08-11T08:06:54;1.87;;;1.37;;
43325;SDS011;28920;59.862;30.636;2022-08-11T08:09:41;3.00;;;1.17;;
43325;SDS011;28920;59.862;30.636;2022-08-11T08:12:27;3.90;;;1.60;;
43325;SDS011;28920;59.862;30.636;2022-08-11T08:15:14;3.75;;;1.67;;
43325;SDS011;28920;59.862;30.636;2022-08-11T08:18:02;2.58;;;1.40;;
43325;SDS011;28920;59.862;30.636;2022-08-11T08:20:33;2.65;;;1.33;;
43325;SDS011;28920;59.862;30.636;2022-08-11T08:23:03;5.25;;;1.33;;
43325;SDS011;28920;59.862;30.636;2022-08-11T08:25:33;3.62;;;1.40;;
43325;SDS011;28920;59.862;30.636;2022-08-11T08:28:05;7.47;;;1.40;;
43325;SDS011;28920;59.862;30.636;2022-08-11T08:30:36;2.35;;;1.23;;
43325;SDS011;28920;59.862;30.636;2022-08-11T08:33:12;2.50;;;1.48;;
43325;SDS011;28920;59.862;30.636;2022-08-11T08:35:45;4.25;;;1.30;;
43325;SDS011;28920;59.862;30.636;2022-08-11T08:38:14;2.40;;;1.23;;
43325;SDS011;28920;59.862;30.636;2022-08-11T08:40:44;4.05;;;1.37;;
43325;SDS011;28920;59.862;30.636;2022-08-11T08:43:14;3.75;;;1.90;;
43325;SDS011;28920;59.862;30.636;2022-08-11T08:45:44;7.10;;;1.75;;
43325;SDS011;28920;59.862;30.636;2022-08-11T08:48:13;2.37;;;1.20;;
43325;SDS011;28920;59.862;30.636;2022-08-11T08:50:51;2.53;;;1.40;;
43325;SDS011;28920;59.862;30.636;2022-08-11T08:53:42;5.15;;;1.50;;
43325;SDS011;28920;59.862;30.636;2022-08-11T08:56:16;2.20;;;1.58;;
43325;SDS011;28920;59.862;30.636;2022-08-11T08:58:45;2.62;;;1.37;;
43325;SDS011;28920;59.862;30.636;2022-08-11T09:01:15;9.98;;;1.50;;
43325;SDS011;28920;59.862;30.636;2022-08-11T09:03:46;3.83;;;2.20;;
43325;SDS011;28920;59.862;30.636;2022-08-11T09:06:17;8.80;;;1.62;;
43325;SDS011;28920;59.862;30.636;2022-08-11T09:08:45;2.28;;;1.40;;
43325;SDS011;28920;59.862;30.636;2022-08-11T09:11:14;3.30;;;1.70;;
43325;SDS011;28920;59.862;30.636;2022-08-11T09:13:59;3.25;;;1.40;;
43325;SDS011;28920;59.862;30.636;2022-08-11T09:16:29;6.55;;;1.48;;
43325;SDS011;28920;59.862;30.636;2022-08-11T09:18:58;4.82;;;1.85;;
43325;SDS011;28920;59.862;30.636;2022-08-11T09:21:28;1.33;;;1.20;;
43325;SDS011;28920;59.862;30.636;2022-08-11T09:23:57;2.67;;;1.50;;
43325;SDS011;28920;59.862;30.636;2022-08-11T09:26:44;2.42;;;1.40;;
43325;SDS011;28920;59.862;30.636;2022-08-11T09:29:27;4.00;;;1.73;;
43325;SDS011;28920;59.862;30.636;2022-08-11T09:31:56;2.35;;;1.37;;
43325;SDS011;28920;59.862;30.636;2022-08-11T09:34:25;2.40;;;1.52;;
43325;SDS011;28920;59.862;30.636;2022-08-11T09:36:56;2.53;;;1.30;;
43325;SDS011;28920;59.862;30.636;2022-08-11T09:39:43;3.40;;;1.42;;
43325;SDS011;28920;59.862;30.636;2022-08-11T09:42:30;1.65;;;1.27;;
43325;SDS011;28920;59.862;30.636;2022-08-11T09:45:12;1.35;;;1.12;;
43325;SDS011;28920;59.862;30.636;2022-08-11T09:47:42;1.90;;;1.23;;
43325;SDS011;28920;59.862;30.636;2022-08-11T09:50:11;3.33;;;1.40;;
43325;SDS011;28920;59.862;30.636;2022-08-11T09:52:44;4.65;;;1.50;;
43325;SDS011;28920;59.862;30.636;2022-08-11T09:55:13;6.65;;;1.50;;
43325;SDS011;28920;59.862;30.636;2022-08-11T09:57:44;1.77;;;1.15;;
43325;SDS011;28920;59.862;30.636;2022-08-11T10:00:31;4.20;;;1.50;;
43325;SDS011;28920;59.862;30.636;2022-08-11T10:03:03;1.80;;;1.40;;
43325;SDS011;28920;59.862;30.636;2022-08-11T10:05:34;2.40;;;1.30;;
43325;SDS011;28920;59.862;30.636;2022-08-11T10:08:27;5.37;;;1.52;;
43325;SDS011;28920;59.862;30.636;2022-08-11T10:10:56;2.12;;;1.40;;
43325;SDS011;28920;59.862;30.636;2022-08-11T10:13:25;2.40;;;1.50;;
43325;SDS011;28920;59.862;30.636;2022-08-11T10:16:01;2.17;;;1.37;;
43325;SDS011;28920;59.862;30.636;2022-08-11T10:18:33;2.28;;;1.30;;
43325;SDS011;28920;59.862;30.636;2022-08-11T10:21:17;2.40;;;1.62;;
43325;SDS011;28920;59.862;30.636;2022-08-11T10:23:56;3.15;;;1.60;;
43325;SDS011;28920;59.862;30.636;2022-08-11T10:26:44;1.77;;;1.50;;
43325;SDS011;28920;59.862;30.636;2022-08-11T10:29:25;5.20;;;1.50;;
43325;SDS011;28920;59.862;30.636;2022-08-11T10:32:13;2.55;;;1.48;;
43325;SDS011;28920;59.862;30.636;2022-08-11T10:35:05;3.08;;;1.33;;
43325;SDS011;28920;59.862;30.636;2022-08-11T10:37:35;2.40;;;1.45;;
43325;SDS011;28920;59.862;30.636;2022-08-11T10:40:06;2.72;;;1.50;;
43325;SDS011;28920;59.862;30.636;2022-08-11T10:42:36;3.83;;;1.10;;
43325;SDS011;28920;59.862;30.636;2022-08-11T10:45:23;2.03;;;1.30;;
43325;SDS011;28920;59.862;30.636;2022-08-11T10:48:09;3.35;;;1.48;;
43325;SDS011;28920;59.862;30.636;2022-08-11T10:50:38;3.22;;;1.62;;
43325;SDS011;28920;59.862;30.636;2022-08-11T10:53:24;3.78;;;1.30;;
43325;SDS011;28920;59.862;30.636;2022-08-11T10:56:11;2.65;;;1.58;;
43325;SDS011;28920;59.862;30.636;2022-08-11T10:58:57;2.75;;;1.80;;
43325;SDS011;28920;59.862;30.636;2022-08-11T11:01:27;8.32;;;2.15;;
43325;SDS011;28920;59.862;30.636;2022-08-11T11:03:59;1.73;;;1.50;;
43325;SDS011;28920;59.862;30.636;2022-08-11T11:06:32;2.80;;;1.25;;
43325;SDS011;28920;59.862;30.636;2022-08-11T11:09:11;1.90;;;1.20;;
43325;SDS011;28920;59.862;30.636;2022-08-11T11:11:47;1.98;;;1.77;;
43325;SDS011;28920;59.862;30.636;2022-08-11T11:14:35;2.78;;;1.52;;
43325;SDS011;28920;59.862;30.636;2022-08-11T11:17:26;4.25;;;1.70;;
43325;SDS011;28920;59.862;30.636;2022-08-11T11:20:14;2.62;;;1.23;;
43325;SDS011;28920;59.862;30.636;2022-08-11T11:22:47;3.10;;;1.40;;
43325;SDS011;28920;59.862;30.636;2022-08-11T11:25:20;2.30;;;1.50;;
43325;SDS011;28920;59.862;30.636;2022-08-11T11:28:09;3.28;;;1.30;;
43325;SDS011;28920;59.862;30.636;2022-08-11T11:30:50;3.70;;;1.20;;
43325;SDS011;28920;59.862;30.636;2022-08-11T11:33:37;2.55;;;1.50;;
43325;SDS011;28920;59.862;30.636;2022-08-11T11:36:20;2.72;;;1.15;;
43325;SDS011;28920;59.862;30.636;2022-08-11T11:38:54;1.92;;;1.50;;
43325;SDS011;28920;59.862;30.636;2022-08-11T11:41:23;2.20;;;1.62;;
43325;SDS011;28920;59.862;30.636;2022-08-11T11:43:54;3.28;;;1.23;;
43325;SDS011;28920;59.862;30.636;2022-08-11T11:46:24;2.37;;;1.40;;
43325;SDS011;28920;59.862;30.636;2022-08-11T11:48:54;3.67;;;1.57;;
43325;SDS011;28920;59.862;30.636;2022-08-11T11:51:22;4.22;;;1.23;;
43325;SDS011;28920;59.862;30.636;2022-08-11T11:53:52;3.00;;;1.33;;
43325;SDS011;28920;59.862;30.636;2022-08-11T11:56:21;4.00;;;1.23;;
43325;SDS011;28920;59.862;30.636;2022-08-11T11:58:52;5.15;;;1.50;;
43325;SDS011;28920;59.862;30.636;2022-08-11T12:01:39;3.60;;;1.45;;
43325;SDS011;28920;59.862;30.636;2022-08-11T12:04:10;2.40;;;1.25;;
43325;SDS011;28920;59.862;30.636;2022-08-11T12:06:39;2.00;;;1.30;;
43325;SDS011;28920;59.862;30.636;2022-08-11T12:09:08;4.12;;;1.67;;
43325;SDS011;28920;59.862;30.636;2022-08-11T12:11:40;1.50;;;1.30;;
43325;SDS011;28920;59.862;30.636;2022-08-11T12:14:27;4.12;;;1.52;;
43325;SDS011;28920;59.862;30.636;2022-08-11T12:16:56;3.30;;;1.42;;
43325;SDS011;28920;59.862;30.636;2022-08-11T12:19:25;1.85;;;1.00;;
43325;SDS011;28920;59.862;30.636;2022-08-11T12:21:55;2.62;;;1.40;;
43325;SDS011;28920;59.862;30.636;2022-08-11T12:24:41;3.40;;;1.37;;
43325;SDS011;28920;59.862;30.636;2022-08-11T12:27:29;1.27;;;1.17;;
43325;SDS011;28920;59.862;30.636;2022-08-11T12:30:02;2.85;;;1.25;;
43325;SDS011;28920;59.862;30.636;2022-08-11T12:32:33;2.47;;;1.10;;
43325;SDS011;28920;59.862;30.636;2022-08-11T12:35:05;3.12;;;1.12;;
43325;SDS011;28920;59.862;30.636;2022-08-11T12:37:37;1.92;;;1.27;;
43325;SDS011;28920;59.862;30.636;2022-08-11T12:40:10;1.62;;;1.00;;
43325;SDS011;28920;59.862;30.636;2022-08-11T12:42:58;3.20;;;0.95;;
43325;SDS011;28920;59.862;30.636;2022-08-11T12:45:48;3.12;;;0.98;;
43325;SDS011;28920;59.862;30.636;2022-08-11T12:48:23;2.75;;;1.30;;
43325;SDS011;28920;59.862;30.636;2022-08-11T12:51:14;3.33;;;1.60;;
43325;SDS011;28920;59.862;30.636;2022-08-11T12:54:05;1.42;;;1.10;;
43325;SDS011;28920;59.862;30.636;2022-08-11T12:56:40;1.80;;;1.05;;
43325;SDS011;28920;59.862;30.636;2022-08-11T12:59:28;2.10;;;0.87;;
43325;SDS011;28920;59.862;30.636;2022-08-11T13:02:18;3.60;;;1.80;;
43325;SDS011;28920;59.862;30.636;2022-08-11T13:05:06;2.17;;;1.10;;
43325;SDS011;28920;59.862;30.636;2022-08-11T13:07:39;3.37;;;0.90;;
43325;SDS011;28920;59.862;30.636;2022-08-11T13:10:10;5.57;;;1.20;;
43325;SDS011;28920;59.862;30.636;2022-08-11T13:12:40;4.80;;;1.12;;
43325;SDS011;28920;59.862;30.636;2022-08-11T13:15:14;2.08;;;0.98;;
43325;SDS011;28920;59.862;30.636;2022-08-11T13:17:46;1.50;;;1.05;;
43325;SDS011;28920;59.862;30.636;2022-08-11T13:20:15;3.15;;;1.37;;
43325;SDS011;28920;59.862;30.636;2022-08-11T13:22:48;2.55;;;1.05;;
43325;SDS011;28920;59.862;30.636;2022-08-11T13:25:18;4.03;;;1.00;;
43325;SDS011;28920;59.862;30.636;2022-08-11T13:27:49;4.68;;;1.25;;
43325;SDS011;28920;59.862;30.636;2022-08-11T13:30:19;2.45;;;1.27;;
43325;SDS011;28920;59.862;30.636;2022-08-11T13:33:10;3.67;;;1.30;;
43325;SDS011;28920;59.862;30.636;2022-08-11T13:35:39;2.15;;;1.20;;
43325;SDS011;28920;59.862;30.636;2022-08-11T13:38:08;1.90;;;1.10;;
43325;SDS011;28920;59.862;30.636;2022-08-11T13:40:38;2.93;;;1.20;;
43325;SDS011;28920;59.862;30.636;2022-08-11T13:43:07;2.50;;;0.90;;
43325;SDS011;28920;59.862;30.636;2022-08-11T13:45:36;2.12;;;1.33;;
43325;SDS011;28920;59.862;30.636;2022-08-11T13:48:06;2.87;;;1.25;;
43325;SDS011;28920;59.862;30.636;2022-08-11T13:50:38;2.47;;;1.25;;
43325;SDS011;28920;59.862;30.636;2022-08-11T13:53:24;6.72;;;1.30;;
43325;SDS011;28920;59.862;30.636;2022-08-11T13:55:54;5.33;;;1.37;;
43325;SDS011;28920;59.862;30.636;2022-08-11T14:00:52;6.93;;;1.55;;
43325;SDS011;28920;59.862;30.636;2022-08-11T14:03:22;2.85;;;1.23;;
43325;SDS011;28920;59.862;30.636;2022-08-11T14:05:55;2.50;;;1.05;;
43325;SDS011;28920;59.862;30.636;2022-08-11T14:08:26;2.92;;;1.12;;
43325;SDS011;28920;59.862;30.636;2022-08-11T14:10:59;2.40;;;1.70;;
43325;SDS011;28920;59.862;30.636;2022-08-11T14:13:46;3.90;;;1.20;;
43325;SDS011;28920;59.862;30.636;2022-08-11T14:18:49;1.92;;;1.10;;
43325;SDS011;28920;59.862;30.636;2022-08-11T14:21:22;3.58;;;1.10;;
43325;SDS011;28920;59.862;30.636;2022-08-11T14:24:09;2.53;;;1.50;;
43325;SDS011;28920;59.862;30.636;2022-08-11T14:26:38;2.50;;;1.10;;
43325;SDS011;28920;59.862;30.636;2022-08-11T14:29:09;2.95;;;1.12;;
43325;SDS011;28920;59.862;30.636;2022-08-11T14:31:42;1.73;;;1.20;;
43325;SDS011;28920;59.862;30.636;2022-08-11T14:34:12;1.42;;;1.00;;
43325;SDS011;28920;59.862;30.636;2022-08-11T14:36:43;3.28;;;1.50;;
43325;SDS011;28920;59.862;30.636;2022-08-11T14:39:14;1.52;;;1.23;;
43325;SDS011;28920;59.862;30.636;2022-08-11T14:41:44;2.50;;;1.10;;
43325;SDS011;28920;59.862;30.636;2022-08-11T14:44:33;1.48;;;1.37;;
43325;SDS011;28920;59.862;30.636;2022-08-11T14:47:19;4.00;;;1.00;;
43325;SDS011;28920;59.862;30.636;2022-08-11T14:49:49;4.87;;;1.23;;
43325;SDS011;28920;59.862;30.636;2022-08-11T14:52:21;4.95;;;1.27;;
43325;SDS011;28920;59.862;30.636;2022-08-11T14:54:51;8.50;;;1.35;;
43325;SDS011;28920;59.862;30.636;2022-08-11T14:57:37;1.73;;;1.30;;
43325;SDS011;28920;59.862;30.636;2022-08-11T15:00:08;4.15;;;1.23;;
43325;SDS011;28920;59.862;30.636;2022-08-11T15:02:40;3.08;;;1.10;;
43325;SDS011;28920;59.862;30.636;2022-08-11T15:05:26;3.58;;;1.67;;
43325;SDS011;28920;59.862;30.636;2022-08-11T15:07:56;4.07;;;1.37;;
43325;SDS011;28920;59.862;30.636;2022-08-11T15:10:25;2.90;;;1.20;;
43325;SDS011;28920;59.862;30.636;2022-08-11T15:12:54;2.62;;;1.33;;
43325;SDS011;28920;59.862;30.636;2022-08-11T15:15:23;3.28;;;1.48;;
43325;SDS011;28920;59.862;30.636;2022-08-11T15:18:10;5.15;;;2.20;;
43325;SDS011;28920;59.862;30.636;2022-08-11T15:20:41;7.10;;;1.98;;
43325;SDS011;28920;59.862;30.636;2022-08-11T15:23:29;3.50;;;1.58;;
43325;SDS011;28920;59.862;30.636;2022-08-11T15:26:15;4.78;;;1.30;;
43325;SDS011;28920;59.862;30.636;2022-08-11T15:29:05;3.10;;;1.30;;
43325;SDS011;28920;59.862;30.636;2022-08-11T15:32:04;4.32;;;1.42;;
43325;SDS011;28920;59.862;30.636;2022-08-11T15:34:53;5.60;;;1.70;;
43325;SDS011;28920;59.862;30.636;2022-08-11T15:37:42;6.15;;;1.40;;
43325;SDS011;28920;59.862;30.636;2022-08-11T15:40:15;15.43;;;3.12;;
43325;SDS011;28920;59.862;30.636;2022-08-11T15:43:03;8.90;;;2.40;;
43325;SDS011;28920;59.862;30.636;2022-08-11T15:45:52;10.93;;;2.62;;
43325;SDS011;28920;59.862;30.636;2022-08-11T15:48:29;6.45;;;1.70;;
43325;SDS011;28920;59.862;30.636;2022-08-11T15:51:04;4.72;;;1.60;;
43325;SDS011;28920;59.862;30.636;2022-08-11T15:53:39;10.13;;;2.15;;
43325;SDS011;28920;59.862;30.636;2022-08-11T15:56:11;3.75;;;1.50;;
43325;SDS011;28920;59.862;30.636;2022-08-11T15:58:42;8.90;;;1.52;;
43325;SDS011;28920;59.862;30.636;2022-08-11T16:01:30;5.75;;;1.98;;
43325;SDS011;28920;59.862;30.636;2022-08-11T16:04:19;6.93;;;2.65;;
43325;SDS011;28920;59.862;30.636;2022-08-11T16:06:50;7.43;;;2.72;;
43325;SDS011;28920;59.862;30.636;2022-08-11T16:09:22;5.12;;;1.80;;
43325;SDS011;28920;59.862;30.636;2022-08-11T16:11:59;4.53;;;1.52;;
43325;SDS011;28920;59.862;30.636;2022-08-11T16:14:33;6.22;;;1.70;;
43325;SDS011;28920;59.862;30.636;2022-08-11T16:17:22;3.75;;;1.62;;
43325;SDS011;28920;59.862;30.636;2022-08-11T16:19:53;6.35;;;1.62;;
43325;SDS011;28920;59.862;30.636;2022-08-11T16:22:23;6.72;;;1.40;;
43325;SDS011;28920;59.862;30.636;2022-08-11T16:24:59;5.07;;;1.60;;
43325;SDS011;28920;59.862;30.636;2022-08-11T16:27:32;5.90;;;1.80;;